Poulsbo, WA (98370)

1:44 AM PST on February 22, 2017 (GMT -0800)
Central Market Poulsbo | | Change Station

Elev 68 ft 47.75 °N, 122.64 °W | Updated 18 seconds ago

Overcast
Overcast
40.0 °F
Feels Like 40 °F
N
0.0
Wind Variable Wind from NNE
Gusts 0.0 mph

Today
High -- | Low -- °F
--% Chance of Precip.
Yesterday
High -- | Low -- °F
Precip. -- in
Pressure 30.19 in
Visibility 10.0 miles
Clouds Overcast 1300 ft
Windchill 40 °F
Dew Point 38 °F
Humidity 94%
Rainfall 0.02 in
Snow Depth Not available.
7:03 AM 5:45 PM
Waning Crescent, 18% visible
METAR KPWT 220935Z AUTO 03004KT 10SM OVC013 03/02 A3019 RMK AO1
Pressure 30.19 in
Visibility 10.0 miles
Clouds Overcast 1300 ft
Windchill 40 °F
Dew Point 38 °F
Humidity 94%
Rainfall 0.02 in
Snow Depth Not available.
7:03 AM 5:45 PM
Waning Crescent, 18% visible
METAR KPWT 220935Z AUTO 03004KT 10SM OVC013 03/02 A3019 RMK AO1

Get Your Daily Forecast Email!

Thanks for signing up!

Be on the lookout for a verification email in your inbox.

You'll start receiving the daily forecast at 8 AM.

×

10-Day Weather Forecast

Almanac

Astronomy

Feb. 22, 2017 Rise Set
Actual Time
Civil Twilight
Nautical Twilight
Astronomical Twilight
Moon
Length of Visible Light
Length of Day
Tomorrow will be .
, % of the Moon is Illuminated

Today's Extremes

State Highs State Lows

Community

WunderPhotos

Upload Photos

1,962,540 photos uploaded!

WunderBlog® & News

Nearby

Air Quality

  Air Quality AQ Index Pollutant
Not available.

Snow Depth

Station Depth Elevation

Earthquake Activity

City Distance Mag. Time & Date
Minimum magnitude displayed is 2.5.

Coastal Water Temperatures

Place Temperature

Stations

Nearby Weather Stations

Station Location Temp. Windchill Dew Point Humidity Wind Precip. Elev Updated Type
                   

Watches & Warnings

There are currently no watches in effect.